Time;durP1;ratioP1;P1;durP2;ratioP2;P2;SDS_P1;SDS_P2;PMS_P1;PMS_P2;Temp;Humidity;BMP_temperature;BMP_pressure;BME280_temperature;BME280_humidity;BME280_pressure;Samples;Min_cycle;Max_cycle;Signal;HPM_P1;HPM_P2
2021/09/16 00:02:37;;;;;;;3.45;2.97;;;20.80;79.90;;;;;;6221813;28;20490;-77
2021/09/16 00:05:39;;;;;;;4.00;3.10;;;20.90;79.70;;;;;;6221827;28;20495;-77
2021/09/16 00:08:40;;;;;;;8.75;3.88;;;20.90;79.80;;;;;;6221282;28;20439;-77
2021/09/16 00:11:42;;;;;;;4.18;2.97;;;20.90;79.50;;;;;;6222167;28;20454;-77
2021/09/16 00:14:45;;;;;;;6.47;3.08;;;20.90;79.70;;;;;;6221406;28;20420;-76
2021/09/16 00:17:47;;;;;;;4.68;2.63;;;20.90;79.70;;;;;;6221464;28;20502;-77
2021/09/16 00:20:50;;;;;;;6.75;2.90;;;20.90;79.70;;;;;;6221151;28;20456;-77
2021/09/16 00:23:55;;;;;;;4.38;2.78;;;20.90;79.90;;;;;;6222080;28;20526;-77
2021/09/16 00:26:57;;;;;;;12.20;3.60;;;20.90;79.70;;;;;;6220348;28;20544;-77
2021/09/16 00:30:00;;;;;;;5.13;2.90;;;20.90;79.50;;;;;;6221221;28;20775;-77
2021/09/16 00:33:02;;;;;;;4.30;2.63;;;20.90;79.20;;;;;;6221220;28;20408;-77
2021/09/16 00:36:04;;;;;;;3.47;2.90;;;20.90;78.60;;;;;;6221682;28;20529;-76
2021/09/16 00:39:06;;;;;;;4.43;2.92;;;20.80;78.90;;;;;;6220693;28;20445;-77
2021/09/16 00:42:08;;;;;;;4.78;3.03;;;20.80;79.00;;;;;;6221253;28;20486;-77
2021/09/16 00:45:12;;;;;;;6.57;3.60;;;20.70;79.10;;;;;;6221242;28;20475;-77
2021/09/16 00:48:14;;;;;;;3.83;2.53;;;20.70;79.10;;;;;;6221094;28;20530;-77
2021/09/16 00:51:16;;;;;;;5.15;2.85;;;20.70;79.30;;;;;;6224501;28;20493;-77
2021/09/16 00:54:18;;;;;;;4.18;2.50;;;20.70;78.80;;;;;;6224635;28;20463;-77
2021/09/16 00:57:23;;;;;;;4.65;2.38;;;20.70;79.10;;;;;;6220803;28;20424;-77
2021/09/16 01:00:26;;;;;;;3.10;2.80;;;20.70;78.90;;;;;;6220420;28;20519;-77
2021/09/16 01:03:28;;;;;;;3.90;2.95;;;20.60;79.10;;;;;;6220606;28;20897;-77
2021/09/16 01:06:30;;;;;;;2.60;2.30;;;20.60;79.00;;;;;;6220580;28;20474;-77
2021/09/16 01:09:33;;;;;;;4.65;2.30;;;20.60;79.30;;;;;;6220745;28;20417;-77
2021/09/16 01:12:36;;;;;;;6.53;3.43;;;20.60;78.90;;;;;;6220474;28;20440;-77
2021/09/16 01:15:39;;;;;;;3.33;2.83;;;20.60;78.80;;;;;;6220886;28;20541;-77
2021/09/16 01:18:41;;;;;;;3.03;2.63;;;20.60;78.80;;;;;;6220145;28;20631;-77
2021/09/16 01:21:42;;;;;;;4.18;2.67;;;20.60;78.60;;;;;;6220683;28;20445;-77
2021/09/16 01:24:46;;;;;;;5.13;2.35;;;20.70;78.80;;;;;;6220432;28;20484;-77
2021/09/16 01:27:48;;;;;;;5.90;3.08;;;20.80;78.40;;;;;;6220837;28;20508;-77
2021/09/16 01:30:50;;;;;;;3.60;2.30;;;20.80;78.30;;;;;;6219828;28;20579;-77
2021/09/16 01:33:52;;;;;;;5.63;3.38;;;20.80;78.30;;;;;;6220286;28;20785;-77
2021/09/16 01:36:54;;;;;;;4.30;3.20;;;20.80;77.90;;;;;;6220319;28;20463;-77
2021/09/16 01:39:57;;;;;;;3.72;2.53;;;20.90;77.80;;;;;;6220502;28;20521;-77
2021/09/16 01:42:58;;;;;;;6.00;3.08;;;21.00;78.20;;;;;;6220349;28;20425;-77
2021/09/16 01:46:00;;;;;;;7.18;3.22;;;21.00;77.50;;;;;;6220100;28;20454;-77
2021/09/16 01:49:04;;;;;;;5.00;2.75;;;21.00;77.50;;;;;;6219921;28;20759;-77
2021/09/16 01:52:06;;;;;;;3.30;2.28;;;21.00;77.20;;;;;;6220509;28;20433;-77
2021/09/16 01:55:10;;;;;;;6.07;3.15;;;21.00;77.10;;;;;;6220118;28;20425;-77
2021/09/16 01:58:12;;;;;;;4.57;3.35;;;21.00;77.10;;;;;;6219849;28;20482;-77
2021/09/16 02:01:14;;;;;;;8.77;3.10;;;21.10;77.30;;;;;;6219888;28;20417;-77
2021/09/16 02:04:16;;;;;;;5.70;3.45;;;21.00;77.20;;;;;;6220309;28;20443;-77
2021/09/16 02:07:17;;;;;;;3.80;2.88;;;21.10;77.30;;;;;;6219998;28;20421;-77
2021/09/16 02:10:20;;;;;;;3.55;2.58;;;21.10;77.10;;;;;;6221641;28;20503;-77
2021/09/16 02:13:22;;;;;;;7.40;3.15;;;21.10;76.80;;;;;;6224614;28;20504;-77
2021/09/16 02:16:24;;;;;;;3.67;3.15;;;21.10;77.10;;;;;;6224683;28;20498;-77
2021/09/16 02:19:26;;;;;;;4.20;2.25;;;21.10;77.10;;;;;;6224000;28;20538;-77
2021/09/16 02:22:28;;;;;;;3.83;3.00;;;21.10;77.20;;;;;;6224280;28;20781;-77
2021/09/16 02:25:31;;;;;;;7.00;2.58;;;21.10;77.10;;;;;;6224061;28;20413;-77
2021/09/16 02:28:33;;;;;;;5.35;3.00;;;21.10;77.20;;;;;;6223774;28;20523;-77
2021/09/16 02:31:35;;;;;;;4.40;2.60;;;21.10;77.20;;;;;;6224239;28;20918;-77
2021/09/16 02:34:37;;;;;;;4.53;2.83;;;21.10;77.20;;;;;;6223866;28;20419;-77
2021/09/16 02:37:39;;;;;;;3.65;2.67;;;21.10;77.40;;;;;;6223758;28;20413;-77
2021/09/16 02:40:42;;;;;;;5.60;2.72;;;21.10;77.10;;;;;;6223656;28;20437;-77
2021/09/16 02:43:44;;;;;;;5.88;3.08;;;21.20;77.10;;;;;;6224056;28;20433;-77
2021/09/16 02:46:46;;;;;;;4.38;2.97;;;21.20;77.30;;;;;;6223612;28;20420;-78
2021/09/16 02:49:47;;;;;;;3.63;2.85;;;21.20;77.30;;;;;;6223344;28;20930;-77
2021/09/16 02:52:49;;;;;;;3.42;2.70;;;21.20;77.30;;;;;;6223370;28;20424;-77
2021/09/16 02:55:52;;;;;;;7.43;3.15;;;21.10;77.30;;;;;;6223904;28;20483;-77
2021/09/16 02:58:54;;;;;;;4.00;3.17;;;21.30;77.30;;;;;;6223124;28;20421;-77
2021/09/16 03:01:56;;;;;;;5.40;3.30;;;21.30;77.30;;;;;;6223243;28;20467;-77
2021/09/16 03:04:58;;;;;;;4.20;3.17;;;21.30;77.40;;;;;;6223132;28;20409;-77
2021/09/16 03:08:00;;;;;;;6.40;3.40;;;21.30;77.60;;;;;;6223626;28;20432;-77
2021/09/16 03:11:03;;;;;;;5.10;3.53;;;21.30;77.70;;;;;;6223077;28;20421;-77
2021/09/16 03:14:05;;;;;;;5.38;3.53;;;21.30;78.20;;;;;;6222939;28;20520;-77
2021/09/16 03:17:07;;;;;;;4.20;3.60;;;21.30;77.80;;;;;;6222412;28;20490;-77
2021/09/16 03:20:10;;;;;;;6.80;3.35;;;21.30;78.00;;;;;;6222915;28;20442;-77
2021/09/16 03:23:12;;;;;;;8.82;3.55;;;21.30;78.10;;;;;;6221387;28;20555;-77
2021/09/16 03:26:15;;;;;;;6.03;3.72;;;21.30;79.00;;;;;;6222447;28;20840;-77
2021/09/16 03:29:17;;;;;;;8.93;4.27;;;21.20;78.30;;;;;;6222099;28;20504;-77
2021/09/16 03:32:19;;;;;;;6.43;4.03;;;21.20;78.50;;;;;;6222872;28;20518;-77
2021/09/16 03:35:21;;;;;;;6.20;4.00;;;21.30;78.40;;;;;;6222300;28;20940;-77
2021/09/16 03:38:22;;;;;;;5.00;3.75;;;21.30;78.50;;;;;;6222180;28;20499;-77
2021/09/16 03:41:25;;;;;;;5.95;4.00;;;21.30;78.60;;;;;;6222272;28;20504;-77
2021/09/16 03:44:27;;;;;;;5.95;3.90;;;21.30;78.60;;;;;;6222425;28;21021;-77
2021/09/16 03:47:29;;;;;;;9.05;4.47;;;21.40;78.60;;;;;;6222257;28;20877;-77
2021/09/16 03:50:31;;;;;;;7.05;4.03;;;21.40;78.50;;;;;;6221526;28;20428;-77
2021/09/16 03:53:33;;;;;;;7.30;4.20;;;21.40;78.50;;;;;;6222068;28;20511;-77
2021/09/16 03:56:36;;;;;;;5.57;4.70;;;21.40;78.80;;;;;;6221353;28;21060;-77
2021/09/16 03:59:38;;;;;;;7.68;4.85;;;21.40;79.00;;;;;;6221891;28;20518;-77
2021/09/16 04:02:40;;;;;;;8.30;4.97;;;21.30;79.20;;;;;;6221605;28;20421;-77
2021/09/16 04:05:42;;;;;;;10.93;5.60;;;21.30;79.40;;;;;;6221472;28;20421;-77
2021/09/16 04:08:43;;;;;;;8.13;7.32;;;21.20;79.70;;;;;;6221313;28;20475;-77
2021/09/16 04:11:47;;;;;;;19.75;14.07;;;21.20;79.40;;;;;;6221593;28;20519;-77
2021/09/16 04:14:49;;;;;;;17.00;15.23;;;21.20;78.50;;;;;;6221509;28;20464;-77
2021/09/16 04:17:50;;;;;;;21.35;18.17;;;21.10;78.10;;;;;;6221221;28;21155;-77
2021/09/16 04:20:52;;;;;;;27.67;21.25;;;21.10;77.40;;;;;;6221275;28;20484;-77
2021/09/16 04:23:54;;;;;;;23.07;20.70;;;21.10;77.40;;;;;;6227515;28;20547;-77
2021/09/16 04:26:57;;;;;;;32.88;26.83;;;21.00;77.40;;;;;;6224190;28;20886;-77
2021/09/16 04:29:59;;;;;;;43.75;33.50;;;20.60;79.60;;;;;;6221365;28;20422;-77
2021/09/16 04:33:01;;;;;;;45.23;35.33;;;20.20;81.50;;;;;;6220902;28;20639;-77
2021/09/16 04:36:03;;;;;;;46.53;35.08;;;19.90;83.00;;;;;;6221132;28;20476;-77
2021/09/16 04:39:06;;;;;;;53.63;38.20;;;19.70;84.00;;;;;;6220190;28;20506;-77
2021/09/16 04:42:09;;;;;;;55.80;39.33;;;19.40;84.70;;;;;;6220687;28;20526;-77
2021/09/16 04:45:11;;;;;;;52.47;38.00;;;19.30;85.80;;;;;;6220890;28;20487;-77
2021/09/16 04:48:13;;;;;;;59.08;40.58;;;19.30;86.30;;;;;;6221199;28;20437;-77
2021/09/16 04:51:14;;;;;;;59.83;38.97;;;19.30;86.60;;;;;;6220120;28;20555;-77
2021/09/16 04:54:16;;;;;;;58.20;38.75;;;19.20;86.60;;;;;;6220656;28;20421;-77
2021/09/16 04:57:20;;;;;;;54.88;37.08;;;19.10;87.00;;;;;;6220231;28;20419;-77
2021/09/16 05:00:22;;;;;;;49.88;37.38;;;19.00;87.20;;;;;;6220527;28;20547;-77
2021/09/16 05:03:24;;;;;;;52.05;36.78;;;19.00;87.30;;;;;;6220384;28;20443;-77
2021/09/16 05:06:25;;;;;;;45.33;34.67;;;19.00;87.00;;;;;;6220247;28;20495;-77
2021/09/16 05:09:27;;;;;;;48.45;34.67;;;19.00;86.80;;;;;;6219950;28;20495;-77
2021/09/16 05:12:31;;;;;;;48.13;36.15;;;19.00;86.80;;;;;;6220016;28;20922;-77
2021/09/16 05:15:33;;;;;;;49.65;36.58;;;19.00;86.60;;;;;;6220521;28;20429;-76
2021/09/16 05:18:34;;;;;;;47.97;33.83;;;19.10;87.10;;;;;;6221048;28;20460;-77
2021/09/16 05:21:37;;;;;;;45.50;33.03;;;19.10;86.90;;;;;;6219915;28;20447;-76
2021/09/16 05:24:38;;;;;;;46.95;34.13;;;19.10;86.80;;;;;;6219930;28;20459;-77
2021/09/16 05:27:41;;;;;;;51.03;35.87;;;19.00;87.20;;;;;;6263255;22;20526;-77
2021/09/16 05:30:43;;;;;;;53.22;37.10;;;19.00;86.90;;;;;;6268426;28;20497;-77
2021/09/16 05:33:45;;;;;;;44.03;33.87;;;19.00;87.10;;;;;;6268823;28;20797;-77
2021/09/16 05:36:47;;;;;;;44.05;32.53;;;19.00;87.20;;;;;;6268765;28;20514;-77
2021/09/16 05:39:49;;;;;;;41.28;31.02;;;19.00;86.80;;;;;;6269358;28;20530;-76
2021/09/16 05:42:52;;;;;;;38.55;30.05;;;19.00;87.20;;;;;;6268906;28;20417;-77
2021/09/16 05:45:54;;;;;;;35.92;27.85;;;19.00;86.80;;;;;;6271916;28;20401;-76
2021/09/16 05:48:56;;;;;;;34.47;27.20;;;18.80;86.70;;;;;;6273397;28;20405;-76
2021/09/16 05:51:58;;;;;;;27.27;23.40;;;18.70;87.10;;;;;;6276788;28;20483;-76
2021/09/16 05:55:00;;;;;;;28.38;22.85;;;18.70;88.80;;;;;;6278256;28;20496;-77
2021/09/16 05:58:03;;;;;;;27.90;23.50;;;18.70;87.60;;;;;;6273427;28;20417;-77
2021/09/16 06:01:05;;;;;;;26.15;20.50;;;18.70;87.70;;;;;;6273658;28;20485;-76
2021/09/16 06:04:07;;;;;;;26.65;22.02;;;18.70;87.80;;;;;;6273815;28;20567;-76
2021/09/16 06:07:08;;;;;;;30.55;24.02;;;18.60;87.60;;;;;;6273347;28;20497;-76
2021/09/16 06:10:11;;;;;;;27.37;20.73;;;18.60;88.40;;;;;;6272922;28;20525;-76
2021/09/16 06:13:14;;;;;;;29.52;22.10;;;18.50;88.30;;;;;;6273360;28;20445;-76
2021/09/16 06:16:16;;;;;;;32.35;22.48;;;18.60;89.00;;;;;;6273559;28;20495;-77
2021/09/16 06:19:17;;;;;;;41.25;27.35;;;18.50;89.00;;;;;;6272474;28;20825;-77
2021/09/16 06:22:19;;;;;;;40.45;26.40;;;18.40;89.50;;;;;;6273143;28;20470;-77
2021/09/16 06:25:22;;;;;;;38.78;26.25;;;18.40;90.00;;;;;;6272751;28;20877;-77
2021/09/16 06:28:26;;;;;;;44.72;27.60;;;18.50;90.00;;;;;;6273010;28;20429;-77
2021/09/16 06:31:27;;;;;;;58.97;32.58;;;18.50;90.10;;;;;;6272645;28;20492;-77
2021/09/16 06:34:29;;;;;;;67.57;31.55;;;18.50;90.00;;;;;;6272563;28;20455;-76
2021/09/16 06:37:31;;;;;;;59.95;31.05;;;18.50;90.00;;;;;;6286597;28;20553;-78
2021/09/16 06:40:33;;;;;;;47.30;28.05;;;18.40;90.20;;;;;;6303105;28;20518;-77
2021/09/16 06:43:37;;;;;;;50.05;28.83;;;18.40;89.60;;;;;;6299284;28;20572;-77
2021/09/16 06:46:38;;;;;;;55.00;30.17;;;18.30;90.00;;;;;;6298426;28;20494;-77
2021/09/16 06:49:45;;;;;;;58.45;31.15;;;18.30;90.00;;;;;;6297401;28;20490;-77
2021/09/16 06:52:47;;;;;;;51.60;29.27;;;18.20;90.10;;;;;;6297422;28;20439;-77
2021/09/16 06:55:49;;;;;;;50.73;28.37;;;18.20;89.80;;;;;;6297797;28;20516;-77
2021/09/16 06:58:52;;;;;;;65.47;33.33;;;18.10;89.90;;;;;;6297279;28;20546;-77
2021/09/16 07:01:54;;;;;;;61.08;32.72;;;17.90;90.20;;;;;;6297814;28;20411;-77
2021/09/16 07:04:56;;;;;;;63.17;31.70;;;18.00;90.20;;;;;;6297049;28;20497;-79
2021/09/16 07:07:58;;;;;;;73.93;33.92;;;18.00;90.20;;;;;;6290551;28;20589;-77
2021/09/16 07:10:59;;;;;;;65.60;30.88;;;17.90;90.30;;;;;;6296777;28;20412;-77
2021/09/16 07:14:03;;;;;;;59.83;30.48;;;17.90;90.30;;;;;;6297330;28;20419;-76
2021/09/16 07:17:05;;;;;;;59.05;30.40;;;18.00;90.50;;;;;;6296812;28;20495;-77
2021/09/16 07:20:08;;;;;;;51.80;27.77;;;18.00;90.10;;;;;;6297794;28;20515;-76
2021/09/16 07:23:10;;;;;;;39.72;26.20;;;18.00;90.30;;;;;;6296860;28;20788;-76
2021/09/16 07:26:11;;;;;;;46.27;27.87;;;18.00;90.10;;;;;;6296632;28;20495;-76
2021/09/16 07:29:15;;;;;;;43.75;26.42;;;18.10;90.20;;;;;;6295862;28;20772;-76
2021/09/16 07:32:16;;;;;;;50.10;27.77;;;18.20;90.10;;;;;;6297130;28;20515;-76
2021/09/16 07:35:18;;;;;;;48.72;28.58;;;18.20;90.00;;;;;;6295344;28;20931;-76
2021/09/16 07:38:20;;;;;;;68.90;34.40;;;18.40;89.90;;;;;;6287822;28;20562;-77
2021/09/16 07:41:22;;;;;;;51.58;29.58;;;18.30;89.60;;;;;;6295952;28;20781;-76
2021/09/16 07:44:25;;;;;;;54.15;30.55;;;18.40;89.60;;;;;;6296446;28;20927;-77
2021/09/16 07:47:27;;;;;;;52.63;30.25;;;18.30;89.30;;;;;;6296664;28;20419;-77
2021/09/16 07:50:29;;;;;;;57.47;30.63;;;18.30;89.30;;;;;;6295903;28;20449;-78
2021/09/16 07:53:31;;;;;;;55.33;31.73;;;18.20;88.90;;;;;;6296219;28;20499;-76
2021/09/16 07:56:33;;;;;;;53.28;29.75;;;18.10;89.60;;;;;;6295534;28;20435;-76
2021/09/16 07:59:36;;;;;;;64.53;32.85;;;18.10;89.40;;;;;;6295903;28;20431;-76
2021/09/16 08:02:44;;;;;;;58.53;32.73;;;18.10;89.80;;;;;;6295582;28;20410;-78
2021/09/16 08:05:46;;;;;;;51.80;29.75;;;18.10;89.20;;;;;;6294540;28;20881;-77
2021/09/16 08:08:48;;;;;;;66.65;35.03;;;18.10;89.60;;;;;;6286044;28;20531;-77
2021/09/16 08:11:49;;;;;;;78.60;35.77;;;18.20;89.90;;;;;;6296081;28;20584;-77
2021/09/16 08:14:53;;;;;;;66.05;33.03;;;18.30;89.60;;;;;;6295516;28;20419;-77
2021/09/16 08:17:55;;;;;;;78.37;36.37;;;18.40;89.10;;;;;;6295248;28;20483;-77
2021/09/16 08:20:56;;;;;;;74.57;34.60;;;18.40;89.20;;;;;;6295094;28;20482;-77
2021/09/16 08:23:58;;;;;;;59.88;31.80;;;18.40;88.60;;;;;;6295465;28;20920;-76
2021/09/16 08:27:00;;;;;;;51.63;30.58;;;18.40;89.30;;;;;;6295040;28;20495;-78
2021/09/16 08:30:04;;;;;;;48.10;30.02;;;18.50;89.00;;;;;;6294792;28;20506;-77
2021/09/16 08:33:06;;;;;;;69.63;34.35;;;18.60;88.80;;;;;;6295029;28;20416;-77
2021/09/16 08:36:10;;;;;;;56.53;32.63;;;18.60;88.70;;;;;;6294273;28;21013;-77
2021/09/16 08:39:12;;;;;;;58.97;30.87;;;18.60;88.80;;;;;;6286943;28;20521;-77
2021/09/16 08:42:14;;;;;;;82.10;36.15;;;18.70;88.00;;;;;;6294610;28;20450;-77
2021/09/16 08:45:19;;;;;;;51.03;30.25;;;18.60;88.00;;;;;;6294900;28;20473;-77
2021/09/16 08:48:21;;;;;;;49.55;29.70;;;18.70;88.30;;;;;;6295051;28;20434;-77
2021/09/16 08:51:23;;;;;;;49.75;29.95;;;18.70;88.80;;;;;;6294366;28;20491;-77
2021/09/16 08:54:25;;;;;;;41.08;26.55;;;18.80;87.80;;;;;;6294737;28;20494;-77
2021/09/16 08:57:27;;;;;;;42.13;27.55;;;18.90;87.80;;;;;;6294716;28;20419;-78
2021/09/16 09:00:32;;;;;;;37.53;26.42;;;19.00;87.90;;;;;;6294252;28;20989;-77
2021/09/16 09:03:34;;;;;;;35.40;26.33;;;19.00;87.20;;;;;;6295275;28;20431;-77
2021/09/16 09:06:38;;;;;;;36.13;25.53;;;19.10;87.10;;;;;;6289784;28;21013;-77
2021/09/16 09:09:43;;;;;;;38.40;27.23;;;19.10;86.90;;;;;;6289670;28;20429;-77
2021/09/16 09:12:45;;;;;;;41.35;28.20;;;19.20;86.50;;;;;;6294390;28;20915;-77
2021/09/16 09:15:57;;;;;;;33.73;25.73;;;19.10;86.70;;;;;;6294604;28;21035;-77
2021/09/16 09:18:59;;;;;;;36.88;26.63;;;19.20;86.20;;;;;;6293920;28;20416;-77
2021/09/16 09:22:08;;;;;;;32.92;25.30;;;19.20;86.80;;;;;;6299162;28;20490;-77
2021/09/16 09:25:12;;;;;;;35.53;25.75;;;19.30;86.80;;;;;;6299669;28;20530;-77
2021/09/16 09:28:26;;;;;;;29.90;23.73;;;19.40;86.80;;;;;;6300299;28;21063;-79
2021/09/16 09:31:29;;;;;;;33.42;22.42;;;19.50;85.50;;;;;;6299304;28;20416;-77
2021/09/16 09:34:33;;;;;;;28.50;21.85;;;19.60;85.70;;;;;;6299534;28;20412;-78
2021/09/16 09:37:36;;;;;;;24.80;21.65;;;19.50;84.40;;;;;;6289978;28;20997;-77
2021/09/16 09:40:41;;;;;;;28.67;21.40;;;19.50;85.40;;;;;;6298911;28;20512;-77
2021/09/16 09:43:43;;;;;;;22.73;19.30;;;19.60;84.80;;;;;;6299421;28;20492;-77
2021/09/16 09:46:50;;;;;;;21.42;19.15;;;19.70;84.80;;;;;;6298983;28;20439;-77
2021/09/16 09:49:58;;;;;;;20.67;18.03;;;19.70;84.60;;;;;;6298641;28;20442;-77
2021/09/16 09:53:12;;;;;;;21.58;19.08;;;19.80;83.80;;;;;;6298472;28;20473;-77
2021/09/16 09:56:17;;;;;;;23.08;17.92;;;19.90;83.70;;;;;;6300841;28;20512;-78
2021/09/16 09:59:19;;;;;;;20.70;16.67;;;19.90;85.30;;;;;;6299354;28;20490;-77
2021/09/16 10:02:24;;;;;;;17.30;15.25;;;20.00;83.70;;;;;;6298501;28;20905;-77
2021/09/16 10:05:29;;;;;;;21.30;15.97;;;20.00;83.00;;;;;;6297649;28;20499;-77
2021/09/16 10:08:30;;;;;;;18.45;15.65;;;20.00;82.00;;;;;;6289657;28;20894;-77
2021/09/16 10:11:37;;;;;;;17.65;14.30;;;20.10;82.00;;;;;;6298627;28;20561;-77
2021/09/16 10:14:38;;;;;;;19.57;14.73;;;20.10;81.10;;;;;;6298246;28;20975;-77
2021/09/16 10:17:43;;;;;;;20.58;14.63;;;20.10;81.70;;;;;;6298121;28;20490;-78
2021/09/16 10:20:45;;;;;;;18.90;14.45;;;20.30;81.90;;;;;;6297800;28;20518;-77
2021/09/16 10:23:48;;;;;;;19.10;16.02;;;20.40;81.70;;;;;;6298505;28;20875;-77
2021/09/16 10:26:49;;;;;;;23.55;13.95;;;20.60;82.30;;;;;;6297686;28;20777;-78
2021/09/16 10:29:51;;;;;;;16.17;13.55;;;20.60;79.90;;;;;;6297801;28;20420;-77
2021/09/16 10:33:03;;;;;;;14.63;12.65;;;20.80;80.80;;;;;;6297419;28;20835;-77
2021/09/16 10:36:07;;;;;;;14.18;12.13;;;20.80;78.60;;;;;;6297344;28;20581;-77
2021/09/16 10:39:18;;;;;;;13.05;11.85;;;20.60;78.50;;;;;;6288931;28;20500;-77
2021/09/16 10:42:48;;;;;;;14.50;11.38;;;20.60;80.00;;;;;;6297847;28;20423;-77
2021/09/16 10:45:52;;;;;;;12.23;10.93;;;20.70;75.80;;;;;;6297790;28;20462;-77
2021/09/16 10:48:55;;;;;;;12.57;10.93;;;20.80;75.30;;;;;;6297001;28;20780;-77
2021/09/16 10:51:59;;;;;;;11.45;10.10;;;20.80;75.70;;;;;;6297738;28;20431;-77
2021/09/16 10:55:02;;;;;;;15.95;10.52;;;20.90;74.10;;;;;;6297380;28;20469;-77
2021/09/16 10:58:24;;;;;;;12.68;9.85;;;21.10;73.60;;;;;;6296955;28;20412;-77
2021/09/16 11:01:59;;;;;;;10.73;9.48;;;21.20;70.80;;;;;;6296909;28;20448;-78
2021/09/16 11:05:10;;;;;;;11.75;10.55;;;21.30;71.70;;;;;;6297255;28;20395;-77
2021/09/16 11:08:12;;;;;;;11.25;9.32;;;21.40;72.40;;;;;;6265334;28;20439;-78
2021/09/16 11:11:14;;;;;;;9.75;8.75;;;21.50;70.70;;;;;;6297951;28;20520;-77
2021/09/16 11:14:29;;;;;;;10.18;8.93;;;21.60;69.30;;;;;;6296716;28;20498;-77
2021/09/16 11:17:32;;;;;;;11.90;9.63;;;21.60;70.50;;;;;;6296611;28;20453;-78
2021/09/16 11:20:35;;;;;;;9.68;8.68;;;21.70;70.10;;;;;;6297257;28;20585;-78
2021/09/16 11:23:42;;;;;;;9.77;8.77;;;21.60;68.90;;;;;;6296832;28;20611;-78
2021/09/16 11:26:45;;;;;;;9.02;7.85;;;21.70;69.10;;;;;;6296228;28;20932;-77
2021/09/16 11:29:48;;;;;;;8.68;7.55;;;21.70;67.40;;;;;;6297559;22;20443;-75
2021/09/16 11:32:51;;;;;;;11.20;8.23;;;21.80;69.40;;;;;;6271563;28;20465;-75
2021/09/16 11:35:53;;;;;;;8.30;7.50;;;21.90;67.90;;;;;;6270806;28;20921;-77
2021/09/16 11:39:13;;;;;;;14.98;8.77;;;21.80;69.60;;;;;;6264772;28;20499;-76
2021/09/16 11:42:21;;;;;;;12.07;8.93;;;22.00;68.30;;;;;;6221624;28;20551;-77
2021/09/16 11:45:26;;;;;;;9.00;7.95;;;22.30;67.20;;;;;;6222256;28;20417;-77
2021/09/16 11:48:29;;;;;;;10.40;8.85;;;22.40;66.40;;;;;;6223333;28;20435;-78
2021/09/16 11:51:31;;;;;;;10.02;9.02;;;22.40;65.50;;;;;;6222145;28;20888;-77
2021/09/16 11:54:33;;;;;;;13.90;8.70;;;22.50;64.00;;;;;;6221864;28;20635;-77
2021/09/16 11:57:53;;;;;;;9.50;8.30;;;22.50;64.90;;;;;;6221633;28;20608;-77
2021/09/16 12:00:57;;;;;;;10.37;8.50;;;22.30;63.60;;;;;;6221699;28;20405;-77
2021/09/16 12:04:03;;;;;;;12.05;8.35;;;22.40;64.90;;;;;;6222556;28;20578;-77
2021/09/16 12:07:05;;;;;;;13.48;11.65;;;22.40;63.50;;;;;;6246178;28;20418;-77
2021/09/16 12:10:08;;;;;;;10.60;7.72;;;22.40;64.70;;;;;;6270077;28;20996;-77
2021/09/16 12:13:12;;;;;;;12.98;9.48;;;22.40;64.40;;;;;;6270616;28;20424;-77
2021/09/16 12:16:16;;;;;;;9.18;8.15;;;22.50;64.50;;;;;;6271159;28;20516;-76
2021/09/16 12:19:20;;;;;;;11.23;7.78;;;22.60;62.60;;;;;;6270469;28;20416;-77
2021/09/16 12:22:22;;;;;;;15.20;7.82;;;22.70;63.00;;;;;;6232707;28;20423;-77
2021/09/16 12:25:26;;;;;;;7.97;7.28;;;22.90;61.90;;;;;;6221111;28;20853;-77
2021/09/16 12:28:29;;;;;;;10.00;7.93;;;23.10;63.40;;;;;;6221702;28;20439;-77
2021/09/16 12:31:33;;;;;;;9.13;8.23;;;23.20;62.90;;;;;;6220812;28;20924;-77
2021/09/16 12:34:40;;;;;;;7.75;6.95;;;23.30;62.90;;;;;;6220323;28;20428;-77
2021/09/16 12:37:43;;;;;;;9.07;6.28;;;23.50;60.30;;;;;;6254788;28;20426;-77
2021/09/16 12:40:45;;;;;;;9.77;6.88;;;23.60;59.50;;;;;;6270182;28;20437;-77
2021/09/16 12:43:47;;;;;;;9.43;7.78;;;23.70;59.90;;;;;;6270817;28;20917;-77
2021/09/16 12:46:55;;;;;;;9.75;7.55;;;23.60;59.80;;;;;;6270643;28;20499;-77
2021/09/16 12:50:07;;;;;;;10.65;7.70;;;23.40;61.80;;;;;;6270181;28;20504;-77
2021/09/16 12:53:15;;;;;;;8.45;7.07;;;23.30;62.90;;;;;;6270234;28;20903;-77
2021/09/16 12:56:18;;;;;;;10.45;6.60;;;23.30;63.00;;;;;;6270893;28;20444;-77
2021/09/16 12:59:23;;;;;;;11.17;6.60;;;23.20;62.80;;;;;;6269658;28;20884;-77
2021/09/16 13:02:27;;;;;;;9.50;6.90;;;23.40;63.30;;;;;;6270508;28;20960;-77
2021/09/16 13:05:34;;;;;;;8.13;7.25;;;23.40;62.80;;;;;;6270134;28;20428;-77
2021/09/16 13:08:40;;;;;;;7.10;6.22;;;23.50;64.00;;;;;;6261260;28;20902;-77
2021/09/16 13:11:42;;;;;;;11.90;6.97;;;23.60;62.80;;;;;;6270516;28;20456;-77
2021/09/16 13:14:45;;;;;;;7.72;6.38;;;23.70;62.30;;;;;;6270219;28;20504;-77
2021/09/16 13:17:47;;;;;;;11.23;7.10;;;23.80;61.50;;;;;;6269825;28;20528;-77
2021/09/16 13:20:50;;;;;;;6.57;5.97;;;23.70;61.70;;;;;;6270223;28;20483;-77
2021/09/16 13:23:54;;;;;;;6.68;5.97;;;23.50;62.50;;;;;;6238821;28;20446;-77
2021/09/16 13:26:56;;;;;;;8.65;6.63;;;23.40;63.50;;;;;;6245399;28;20434;-77
2021/09/16 13:29:58;;;;;;;8.27;7.35;;;23.30;63.40;;;;;;6244577;28;20502;-77
2021/09/16 13:33:00;;;;;;;9.13;6.75;;;23.20;64.10;;;;;;6245297;28;20411;-78
2021/09/16 13:36:03;;;;;;;6.80;5.95;;;23.40;63.50;;;;;;6252650;28;20464;-77
2021/09/16 13:39:05;;;;;;;12.88;6.43;;;23.60;63.60;;;;;;6261098;28;20491;-77
2021/09/16 13:42:08;;;;;;;7.78;6.55;;;24.00;61.40;;;;;;6269938;28;20425;-77
2021/09/16 13:45:12;;;;;;;8.37;6.17;;;24.30;60.80;;;;;;6269942;28;20519;-78
2021/09/16 13:48:15;;;;;;;6.67;6.07;;;24.60;59.60;;;;;;6260518;28;20435;-78
2021/09/16 13:51:18;;;;;;;6.45;5.85;;;24.80;59.40;;;;;;6244860;28;20415;-77
2021/09/16 13:54:20;;;;;;;6.72;5.55;;;24.80;58.70;;;;;;6245285;28;20445;-77
2021/09/16 13:57:22;;;;;;;8.25;6.10;;;24.90;60.00;;;;;;6244535;28;21001;-77
2021/09/16 14:00:24;;;;;;;6.60;5.20;;;24.90;56.30;;;;;;6245336;28;20455;-77
2021/09/16 14:03:25;;;;;;;5.63;5.13;;;25.10;57.90;;;;;;6244925;28;20454;-77
2021/09/16 14:06:29;;;;;;;7.33;5.37;;;25.30;58.60;;;;;;6256185;28;20444;-77
2021/09/16 14:09:30;;;;;;;6.75;5.35;;;25.40;57.40;;;;;;6268398;28;20937;-77
2021/09/16 14:12:33;;;;;;;8.45;5.57;;;25.40;56.60;;;;;;6274210;28;20534;-77
2021/09/16 14:15:35;;;;;;;8.68;7.35;;;25.30;57.50;;;;;;6274811;28;20433;-77
2021/09/16 14:18:36;;;;;;;11.00;6.37;;;25.30;57.40;;;;;;6276430;28;21051;-78
2021/09/16 14:21:40;;;;;;;7.00;6.30;;;25.10;57.60;;;;;;6277626;28;21040;-78
2021/09/16 14:24:42;;;;;;;8.88;6.72;;;24.90;58.50;;;;;;6246581;28;20526;-77
2021/09/16 14:27:44;;;;;;;6.73;6.13;;;24.80;58.30;;;;;;6224773;28;20523;-77
2021/09/16 14:30:46;;;;;;;7.63;6.47;;;24.60;59.90;;;;;;6224304;28;20554;-78
2021/09/16 14:33:47;;;;;;;8.00;7.07;;;24.50;58.90;;;;;;6229249;28;20452;-77
2021/09/16 14:36:51;;;;;;;8.07;6.93;;;24.40;60.60;;;;;;6258745;28;20415;-77
2021/09/16 14:39:52;;;;;;;9.43;6.90;;;24.30;61.20;;;;;;6286070;28;20842;-77
2021/09/16 14:42:54;;;;;;;8.75;6.05;;;24.10;59.90;;;;;;6279105;28;20425;-78
2021/09/16 14:45:56;;;;;;;9.20;6.50;;;24.10;61.00;;;;;;6274872;28;20417;-78
2021/09/16 14:48:58;;;;;;;8.68;6.95;;;24.00;60.80;;;;;;6273504;28;20507;-77
2021/09/16 14:52:01;;;;;;;9.15;6.45;;;24.00;61.80;;;;;;6274076;28;20579;-78
2021/09/16 14:55:03;;;;;;;9.90;7.35;;;23.90;61.90;;;;;;6273053;28;20421;-78
2021/09/16 14:58:05;;;;;;;7.05;6.00;;;24.00;63.00;;;;;;6272924;28;20418;-77
2021/09/16 15:01:07;;;;;;;8.20;6.10;;;24.00;60.90;;;;;;6272865;28;20501;-77
2021/09/16 15:04:09;;;;;;;7.55;5.97;;;24.00;61.30;;;;;;6273342;28;20914;-77
2021/09/16 15:07:12;;;;;;;7.57;6.10;;;23.90;60.40;;;;;;6263527;28;20419;-77
2021/09/16 15:10:15;;;;;;;9.13;7.03;;;23.90;60.90;;;;;;6272193;28;20727;-78
2021/09/16 15:13:17;;;;;;;8.13;6.53;;;23.90;60.50;;;;;;6272976;28;20499;-77
2021/09/16 15:16:18;;;;;;;7.53;5.47;;;23.90;60.80;;;;;;6272391;28;20524;-77
2021/09/16 15:19:20;;;;;;;8.00;5.72;;;23.90;60.30;;;;;;6271009;28;20504;-77
2021/09/16 15:22:23;;;;;;;6.70;6.00;;;23.80;61.30;;;;;;6272138;28;20882;-77
2021/09/16 15:25:25;;;;;;;10.50;5.55;;;23.80;61.50;;;;;;6244457;28;20424;-78
2021/09/16 15:28:27;;;;;;;5.30;4.80;;;23.60;61.50;;;;;;6247219;28;20465;-77
2021/09/16 15:31:29;;;;;;;5.65;4.88;;;23.50;58.60;;;;;;6247402;28;20469;-77
2021/09/16 15:34:31;;;;;;;5.78;5.18;;;23.20;58.80;;;;;;6246994;28;20497;-77
2021/09/16 15:37:35;;;;;;;6.23;5.07;;;23.00;60.80;;;;;;6258244;28;21016;-77
2021/09/16 15:40:36;;;;;;;5.72;5.03;;;22.80;61.80;;;;;;6271532;28;20464;-77
2021/09/16 15:43:38;;;;;;;6.57;5.05;;;22.70;60.70;;;;;;6271793;28;20502;-77